sensor_id;sensor_type;location;lat;lon;timestamp;pressure;altitude;pressure_sealevel;temperature;humidity
9746;BME280;4912;50.836;12.958;2023-02-19T00:01:51;97786.63;;;10.13;100.00
9746;BME280;4912;50.836;12.958;2023-02-19T00:04:22;97781.41;;;10.15;100.00
9746;BME280;4912;50.836;12.958;2023-02-19T00:06:55;97776.22;;;10.17;100.00
9746;BME280;4912;50.836;12.958;2023-02-19T00:09:25;97774.22;;;10.18;100.00
9746;BME280;4912;50.836;12.958;2023-02-19T00:11:56;97781.75;;;10.17;100.00
9746;BME280;4912;50.836;12.958;2023-02-19T00:14:26;97771.56;;;10.14;100.00
9746;BME280;4912;50.836;12.958;2023-02-19T00:16:56;97771.56;;;10.14;100.00
9746;BME280;4912;50.836;12.958;2023-02-19T00:19:27;97772.34;;;10.15;100.00
9746;BME280;4912;50.836;12.958;2023-02-19T00:22:00;97766.22;;;10.11;100.00
9746;BME280;4912;50.836;12.958;2023-02-19T00:24:31;97771.75;;;10.11;100.00
9746;BME280;4912;50.836;12.958;2023-02-19T00:27:01;97766.81;;;10.15;100.00
9746;BME280;4912;50.836;12.958;2023-02-19T00:29:32;97751.34;;;10.17;100.00
9746;BME280;4912;50.836;12.958;2023-02-19T00:32:02;97756.56;;;10.06;100.00
9746;BME280;4912;50.836;12.958;2023-02-19T00:34:33;97748.13;;;10.01;100.00
9746;BME280;4912;50.836;12.958;2023-02-19T00:37:06;97741.97;;;10.06;100.00
9746;BME280;4912;50.836;12.958;2023-02-19T00:39:37;97746.44;;;10.03;100.00
9746;BME280;4912;50.836;12.958;2023-02-19T00:42:07;97737.50;;;10.08;100.00
9746;BME280;4912;50.836;12.958;2023-02-19T00:44:38;97741.50;;;10.07;100.00
9746;BME280;4912;50.836;12.958;2023-02-19T00:47:08;97735.69;;;10.05;100.00
9746;BME280;4912;50.836;12.958;2023-02-19T00:49:39;97735.03;;;10.10;100.00
9746;BME280;4912;50.836;12.958;2023-02-19T00:52:12;97727.81;;;10.13;100.00
9746;BME280;4912;50.836;12.958;2023-02-19T00:54:42;97720.28;;;10.13;100.00
9746;BME280;4912;50.836;12.958;2023-02-19T00:57:12;97722.75;;;10.11;100.00
9746;BME280;4912;50.836;12.958;2023-02-19T00:59:43;97715.88;;;10.07;100.00
9746;BME280;4912;50.836;12.958;2023-02-19T01:02:13;97718.31;;;10.05;100.00
9746;BME280;4912;50.836;12.958;2023-02-19T01:04:44;97710.34;;;9.98;100.00
9746;BME280;4912;50.836;12.958;2023-02-19T01:07:17;97713.59;;;9.96;100.00
9746;BME280;4912;50.836;12.958;2023-02-19T01:09:47;97710.22;;;10.01;100.00
9746;BME280;4912;50.836;12.958;2023-02-19T01:12:17;97708.81;;;9.97;100.00
9746;BME280;4912;50.836;12.958;2023-02-19T01:14:50;97718.53;;;9.92;100.00
9746;BME280;4912;50.836;12.958;2023-02-19T01:17:20;97717.44;;;9.90;100.00
9746;BME280;4912;50.836;12.958;2023-02-19T01:19:51;97704.13;;;9.79;100.00
9746;BME280;4912;50.836;12.958;2023-02-19T01:22:24;97700.94;;;9.62;100.00
9746;BME280;4912;50.836;12.958;2023-02-19T01:24:54;97691.13;;;9.61;100.00
9746;BME280;4912;50.836;12.958;2023-02-19T01:27:25;97682.06;;;9.61;100.00
9746;BME280;4912;50.836;12.958;2023-02-19T01:29:55;97661.22;;;9.60;100.00
9746;BME280;4912;50.836;12.958;2023-02-19T01:32:26;97659.38;;;9.57;100.00
9746;BME280;4912;50.836;12.958;2023-02-19T01:34:56;97649.28;;;9.54;100.00
9746;BME280;4912;50.836;12.958;2023-02-19T01:37:30;97648.50;;;9.53;100.00
9746;BME280;4912;50.836;12.958;2023-02-19T01:40:00;97647.13;;;9.49;100.00
9746;BME280;4912;50.836;12.958;2023-02-19T01:42:31;97645.88;;;9.50;100.00
9746;BME280;4912;50.836;12.958;2023-02-19T01:45:19;97632.72;;;9.44;100.00
9746;BME280;4912;50.836;12.958;2023-02-19T01:47:57;97618.59;;;9.42;100.00
9746;BME280;4912;50.836;12.958;2023-02-19T01:50:33;97625.38;;;9.41;100.00
9746;BME280;4912;50.836;12.958;2023-02-19T01:53:11;97630.09;;;9.50;100.00
9746;BME280;4912;50.836;12.958;2023-02-19T01:55:43;97613.38;;;9.54;100.00
9746;BME280;4912;50.836;12.958;2023-02-19T01:58:16;97615.50;;;9.59;100.00
9746;BME280;4912;50.836;12.958;2023-02-19T02:00:47;97603.41;;;9.47;100.00
9746;BME280;4912;50.836;12.958;2023-02-19T02:03:18;97611.84;;;9.53;100.00
9746;BME280;4912;50.836;12.958;2023-02-19T02:05:53;97604.78;;;9.52;100.00
9746;BME280;4912;50.836;12.958;2023-02-19T02:08:29;97601.09;;;9.45;100.00
9746;BME280;4912;50.836;12.958;2023-02-19T02:11:12;97604.59;;;9.55;100.00
9746;BME280;4912;50.836;12.958;2023-02-19T02:13:43;97592.50;;;9.53;100.00
9746;BME280;4912;50.836;12.958;2023-02-19T02:16:21;97604.03;;;9.42;100.00
9746;BME280;4912;50.836;12.958;2023-02-19T02:18:58;97582.72;;;9.33;100.00
9746;BME280;4912;50.836;12.958;2023-02-19T02:22:00;97573.22;;;9.34;100.00
9746;BME280;4912;50.836;12.958;2023-02-19T02:27:55;97567.72;;;9.34;100.00
9746;BME280;4912;50.836;12.958;2023-02-19T02:30:41;97559.56;;;9.40;100.00
9746;BME280;4912;50.836;12.958;2023-02-19T02:33:20;97559.13;;;9.32;100.00
9746;BME280;4912;50.836;12.958;2023-02-19T02:35:57;97545.44;;;9.38;100.00
9746;BME280;4912;50.836;12.958;2023-02-19T02:38:32;97543.63;;;9.35;100.00
9746;BME280;4912;50.836;12.958;2023-02-19T02:41:05;97545.44;;;9.38;100.00
9746;BME280;4912;50.836;12.958;2023-02-19T02:43:36;97537.94;;;9.38;100.00
9746;BME280;4912;50.836;12.958;2023-02-19T02:46:12;97524.88;;;9.39;100.00
9746;BME280;4912;50.836;12.958;2023-02-19T02:48:49;97519.03;;;9.46;100.00
9746;BME280;4912;50.836;12.958;2023-02-19T02:51:24;97518.22;;;9.55;100.00
9746;BME280;4912;50.836;12.958;2023-02-19T02:54:05;97525.00;;;9.54;100.00
9746;BME280;4912;50.836;12.958;2023-02-19T02:56:50;97525.00;;;9.54;100.00
9746;BME280;4912;50.836;12.958;2023-02-19T02:59:24;97536.19;;;9.50;100.00
9746;BME280;4912;50.836;12.958;2023-02-19T03:02:02;97526.69;;;9.51;100.00
9746;BME280;4912;50.836;12.958;2023-02-19T03:04:46;97523.59;;;9.49;100.00
9746;BME280;4912;50.836;12.958;2023-02-19T03:07:36;97508.44;;;9.44;100.00
9746;BME280;4912;50.836;12.958;2023-02-19T03:10:11;97506.91;;;9.43;100.00
9746;BME280;4912;50.836;12.958;2023-02-19T03:12:44;97500.16;;;9.44;100.00
9746;BME280;4912;50.836;12.958;2023-02-19T03:15:30;97497.97;;;9.49;100.00
9746;BME280;4912;50.836;12.958;2023-02-19T03:18:20;97490.91;;;9.57;100.00
9746;BME280;4912;50.836;12.958;2023-02-19T03:21:06;97492.66;;;9.45;100.00
9746;BME280;4912;50.836;12.958;2023-02-19T03:23:39;97491.41;;;9.46;100.00
9746;BME280;4912;50.836;12.958;2023-02-19T03:26:24;97504.91;;;9.44;100.00
9746;BME280;4912;50.836;12.958;2023-02-19T03:28:56;97504.47;;;9.45;100.00
9746;BME280;4912;50.836;12.958;2023-02-19T03:31:42;97485.44;;;9.48;100.00
9746;BME280;4912;50.836;12.958;2023-02-19T03:34:21;97487.25;;;9.51;100.00
9746;BME280;4912;50.836;12.958;2023-02-19T03:36:57;97480.97;;;9.50;100.00
9746;BME280;4912;50.836;12.958;2023-02-19T03:39:32;97469.75;;;9.54;100.00
9746;BME280;4912;50.836;12.958;2023-02-19T03:42:23;97482.03;;;9.53;100.00
9746;BME280;4912;50.836;12.958;2023-02-19T03:45:12;97481.56;;;9.54;100.00
9746;BME280;4912;50.836;12.958;2023-02-19T03:47:51;97470.91;;;9.62;100.00
9746;BME280;4912;50.836;12.958;2023-02-19T03:50:35;97457.56;;;9.60;100.00
9746;BME280;4912;50.836;12.958;2023-02-19T03:53:16;97462.94;;;9.64;100.00
9746;BME280;4912;50.836;12.958;2023-02-19T03:56:02;97480.16;;;9.59;100.00
9746;BME280;4912;50.836;12.958;2023-02-19T03:58:43;97466.63;;;9.61;100.00
9746;BME280;4912;50.836;12.958;2023-02-19T04:01:22;97461.88;;;9.61;100.00
9746;BME280;4912;50.836;12.958;2023-02-19T04:03:58;97457.84;;;9.71;100.00
9746;BME280;4912;50.836;12.958;2023-02-19T04:06:35;97457.34;;;9.73;100.00
9746;BME280;4912;50.836;12.958;2023-02-19T04:09:08;97456.56;;;9.72;100.00
9746;BME280;4912;50.836;12.958;2023-02-19T04:11:44;97449.06;;;9.73;100.00
9746;BME280;4912;50.836;12.958;2023-02-19T04:14:18;97467.75;;;9.78;100.00
9746;BME280;4912;50.836;12.958;2023-02-19T04:16:57;97454.34;;;9.85;100.00
9746;BME280;4912;50.836;12.958;2023-02-19T04:19:31;97460.16;;;9.88;100.00
9746;BME280;4912;50.836;12.958;2023-02-19T04:22:08;97453.31;;;9.83;100.00
9746;BME280;4912;50.836;12.958;2023-02-19T04:24:43;97460.34;;;9.84;100.00
9746;BME280;4912;50.836;12.958;2023-02-19T04:27:17;97451.75;;;9.82;100.00
9746;BME280;4912;50.836;12.958;2023-02-19T04:29:48;97445.28;;;9.85;100.00
9746;BME280;4912;50.836;12.958;2023-02-19T04:32:18;97453.47;;;9.79;100.00
9746;BME280;4912;50.836;12.958;2023-02-19T04:34:49;97453.53;;;9.70;100.00
9746;BME280;4912;50.836;12.958;2023-02-19T04:37:22;97451.53;;;9.71;100.00
9746;BME280;4912;50.836;12.958;2023-02-19T04:39:53;97445.25;;;9.70;100.00
9746;BME280;4912;50.836;12.958;2023-02-19T04:42:23;97442.19;;;9.68;100.00
9746;BME280;4912;50.836;12.958;2023-02-19T04:44:54;97450.94;;;9.67;100.00
9746;BME280;4912;50.836;12.958;2023-02-19T04:47:24;97450.66;;;9.65;100.00
9746;BME280;4912;50.836;12.958;2023-02-19T04:49:54;97454.47;;;9.67;100.00
9746;BME280;4912;50.836;12.958;2023-02-19T04:52:27;97449.44;;;9.66;100.00
9746;BME280;4912;50.836;12.958;2023-02-19T04:54:59;97458.75;;;9.68;100.00
9746;BME280;4912;50.836;12.958;2023-02-19T04:57:29;97451.13;;;9.63;100.00
9746;BME280;4912;50.836;12.958;2023-02-19T04:59:59;97460.47;;;9.66;100.00
9746;BME280;4912;50.836;12.958;2023-02-19T05:02:30;97457.06;;;9.71;100.00
9746;BME280;4912;50.836;12.958;2023-02-19T05:05:01;97450.88;;;9.76;100.00
9746;BME280;4912;50.836;12.958;2023-02-19T05:07:36;97442.13;;;9.77;100.00
9746;BME280;4912;50.836;12.958;2023-02-19T05:10:07;97436.50;;;9.72;100.00
9746;BME280;4912;50.836;12.958;2023-02-19T05:12:37;97431.91;;;9.69;100.00
9746;BME280;4912;50.836;12.958;2023-02-19T05:15:07;97443.06;;;9.74;100.00
9746;BME280;4912;50.836;12.958;2023-02-19T05:17:38;97432.47;;;9.73;100.00
9746;BME280;4912;50.836;12.958;2023-02-19T05:20:09;97438.31;;;9.75;100.00
9746;BME280;4912;50.836;12.958;2023-02-19T05:22:42;97436.59;;;9.77;100.00
9746;BME280;4912;50.836;12.958;2023-02-19T05:25:13;97435.66;;;9.80;100.00
9746;BME280;4912;50.836;12.958;2023-02-19T05:27:43;97451.22;;;9.93;100.00
9746;BME280;4912;50.836;12.958;2023-02-19T05:30:14;97457.06;;;10.09;100.00
9746;BME280;4912;50.836;12.958;2023-02-19T05:32:45;97454.78;;;10.08;100.00
9746;BME280;4912;50.836;12.958;2023-02-19T05:35:15;97458.56;;;9.96;100.00
9746;BME280;4912;50.836;12.958;2023-02-19T05:37:48;97455.88;;;9.86;100.00
9746;BME280;4912;50.836;12.958;2023-02-19T05:40:19;97457.63;;;9.75;100.00
9746;BME280;4912;50.836;12.958;2023-02-19T05:42:49;97459.19;;;9.76;100.00
9746;BME280;4912;50.836;12.958;2023-02-19T05:45:19;97452.00;;;9.69;100.00
9746;BME280;4912;50.836;12.958;2023-02-19T05:47:50;97458.75;;;9.68;100.00
9746;BME280;4912;50.836;12.958;2023-02-19T05:50:20;97470.88;;;9.71;100.00
9746;BME280;4912;50.836;12.958;2023-02-19T05:52:53;97464.47;;;9.65;100.00
9746;BME280;4912;50.836;12.958;2023-02-19T05:55:24;97474.16;;;9.84;100.00
9746;BME280;4912;50.836;12.958;2023-02-19T05:57:54;97495.75;;;9.95;100.00
9746;BME280;4912;50.836;12.958;2023-02-19T06:00:25;97500.84;;;9.87;100.00
9746;BME280;4912;50.836;12.958;2023-02-19T06:02:56;97500.84;;;9.87;100.00
9746;BME280;4912;50.836;12.958;2023-02-19T06:05:26;97503.97;;;9.80;100.00
9746;BME280;4912;50.836;12.958;2023-02-19T06:07:59;97519.63;;;9.83;100.00
9746;BME280;4912;50.836;12.958;2023-02-19T06:10:30;97513.19;;;10.01;100.00
9746;BME280;4912;50.836;12.958;2023-02-19T06:13:00;97514.53;;;10.05;100.00
9746;BME280;4912;50.836;12.958;2023-02-19T06:15:31;97522.94;;;10.11;100.00
9746;BME280;4912;50.836;12.958;2023-02-19T06:18:01;97532.16;;;10.17;100.00
9746;BME280;4912;50.836;12.958;2023-02-19T06:20:32;97539.31;;;10.23;100.00
9746;BME280;4912;50.836;12.958;2023-02-19T06:23:05;97540.38;;;10.26;100.00
9746;BME280;4912;50.836;12.958;2023-02-19T06:25:35;97550.66;;;10.25;100.00
9746;BME280;4912;50.836;12.958;2023-02-19T06:28:05;97563.44;;;10.23;100.00
9746;BME280;4912;50.836;12.958;2023-02-19T06:30:36;97575.34;;;10.05;100.00
9746;BME280;4912;50.836;12.958;2023-02-19T06:33:06;97571.38;;;10.06;100.00
9746;BME280;4912;50.836;12.958;2023-02-19T06:35:37;97563.06;;;10.06;100.00
9746;BME280;4912;50.836;12.958;2023-02-19T06:38:10;97585.75;;;10.10;100.00
9746;BME280;4912;50.836;12.958;2023-02-19T06:40:40;97577.81;;;10.03;100.00
9746;BME280;4912;50.836;12.958;2023-02-19T06:43:12;97569.75;;;9.91;100.00
9746;BME280;4912;50.836;12.958;2023-02-19T06:45:42;97579.13;;;9.93;100.00
9746;BME280;4912;50.836;12.958;2023-02-19T06:48:13;97570.81;;;9.93;100.00
9746;BME280;4912;50.836;12.958;2023-02-19T06:50:43;97568.22;;;9.90;100.00
9746;BME280;4912;50.836;12.958;2023-02-19T06:53:16;97585.03;;;9.77;100.00
9746;BME280;4912;50.836;12.958;2023-02-19T06:55:54;97582.22;;;9.86;100.00
9746;BME280;4912;50.836;12.958;2023-02-19T06:58:26;97593.34;;;10.01;100.00
9746;BME280;4912;50.836;12.958;2023-02-19T07:00:56;97599.94;;;10.03;100.00
9746;BME280;4912;50.836;12.958;2023-02-19T07:03:27;97597.69;;;9.93;100.00
9746;BME280;4912;50.836;12.958;2023-02-19T07:05:58;97592.03;;;9.87;100.00
9746;BME280;4912;50.836;12.958;2023-02-19T07:08:32;97591.69;;;9.94;100.00
9746;BME280;4912;50.836;12.958;2023-02-19T07:11:02;97603.59;;;9.76;100.00
9746;BME280;4912;50.836;12.958;2023-02-19T07:13:33;97608.03;;;9.83;100.00
9746;BME280;4912;50.836;12.958;2023-02-19T07:16:06;97601.31;;;9.75;100.00
9746;BME280;4912;50.836;12.958;2023-02-19T07:18:38;97604.84;;;9.66;100.00
9746;BME280;4912;50.836;12.958;2023-02-19T07:21:11;97608.75;;;9.60;100.00
9746;BME280;4912;50.836;12.958;2023-02-19T07:23:45;97621.66;;;9.54;100.00
9746;BME280;4912;50.836;12.958;2023-02-19T07:26:17;97631.28;;;9.58;100.00
9746;BME280;4912;50.836;12.958;2023-02-19T07:28:49;97636.38;;;9.51;100.00
9746;BME280;4912;50.836;12.958;2023-02-19T07:31:21;97636.06;;;9.49;100.00
9746;BME280;4912;50.836;12.958;2023-02-19T07:33:53;97633.31;;;9.49;100.00
9746;BME280;4912;50.836;12.958;2023-02-19T07:36:24;97630.97;;;9.65;100.00
9746;BME280;4912;50.836;12.958;2023-02-19T07:38:58;97633.59;;;9.60;100.00
9746;BME280;4912;50.836;12.958;2023-02-19T07:41:29;97647.06;;;9.67;100.00
9746;BME280;4912;50.836;12.958;2023-02-19T07:43:59;97638.44;;;9.74;100.00
9746;BME280;4912;50.836;12.958;2023-02-19T07:46:30;97646.72;;;9.83;100.00
9746;BME280;4912;50.836;12.958;2023-02-19T07:49:00;97649.22;;;9.72;100.00
9746;BME280;4912;50.836;12.958;2023-02-19T07:51:33;97648.63;;;9.59;100.00
9746;BME280;4912;50.836;12.958;2023-02-19T07:54:08;97645.69;;;9.62;100.00
9746;BME280;4912;50.836;12.958;2023-02-19T07:56:42;97655.53;;;9.63;100.00
9746;BME280;4912;50.836;12.958;2023-02-19T07:59:12;97652.03;;;9.54;100.00
9746;BME280;4912;50.836;12.958;2023-02-19T08:01:45;97647.09;;;9.58;100.00
9746;BME280;4912;50.836;12.958;2023-02-19T08:04:27;97657.50;;;9.63;100.00
9746;BME280;4912;50.836;12.958;2023-02-19T08:06:58;97661.50;;;9.71;100.00
9746;BME280;4912;50.836;12.958;2023-02-19T08:09:32;97658.88;;;9.67;100.00
9746;BME280;4912;50.836;12.958;2023-02-19T08:12:03;97655.78;;;9.74;100.00
9746;BME280;4912;50.836;12.958;2023-02-19T08:14:46;97655.63;;;9.78;100.00
9746;BME280;4912;50.836;12.958;2023-02-19T08:17:16;97657.50;;;9.72;100.00
9746;BME280;4912;50.836;12.958;2023-02-19T08:19:47;97660.56;;;9.74;100.00
9746;BME280;4912;50.836;12.958;2023-02-19T08:22:17;97666.84;;;9.74;100.00
9746;BME280;4912;50.836;12.958;2023-02-19T08:24:50;97680.84;;;9.62;100.00
9746;BME280;4912;50.836;12.958;2023-02-19T08:27:20;97681.00;;;9.58;100.00
9746;BME280;4912;50.836;12.958;2023-02-19T08:29:51;97687.72;;;9.66;100.00
9746;BME280;4912;50.836;12.958;2023-02-19T08:32:24;97687.13;;;9.71;100.00
9746;BME280;4912;50.836;12.958;2023-02-19T08:34:55;97694.03;;;9.67;100.00
9746;BME280;4912;50.836;12.958;2023-02-19T08:37:25;97691.75;;;9.65;100.00
9746;BME280;4912;50.836;12.958;2023-02-19T08:39:58;97696.22;;;9.54;100.00
9746;BME280;4912;50.836;12.958;2023-02-19T08:42:28;97711.22;;;9.62;100.00
9746;BME280;4912;50.836;12.958;2023-02-19T08:44:59;97706.00;;;9.64;100.00
9746;BME280;4912;50.836;12.958;2023-02-19T08:47:29;97716.13;;;9.67;100.00
9746;BME280;4912;50.836;12.958;2023-02-19T08:49:59;97717.84;;;9.64;100.00
9746;BME280;4912;50.836;12.958;2023-02-19T08:52:31;97736.72;;;9.66;100.00
9746;BME280;4912;50.836;12.958;2023-02-19T08:55:05;97748.50;;;9.66;100.00
9746;BME280;4912;50.836;12.958;2023-02-19T08:57:36;97787.03;;;9.61;100.00
9746;BME280;4912;50.836;12.958;2023-02-19T09:00:08;97781.53;;;9.52;100.00
9746;BME280;4912;50.836;12.958;2023-02-19T09:02:39;97806.97;;;9.37;100.00
9746;BME280;4912;50.836;12.958;2023-02-19T09:05:10;97825.88;;;9.30;100.00
9746;BME280;4912;50.836;12.958;2023-02-19T09:07:40;97823.84;;;9.21;100.00
9746;BME280;4912;50.836;12.958;2023-02-19T09:10:13;97827.06;;;9.11;100.00
9746;BME280;4912;50.836;12.958;2023-02-19T09:12:44;97832.75;;;9.16;100.00
9746;BME280;4912;50.836;12.958;2023-02-19T09:15:14;97839.81;;;9.17;100.00
9746;BME280;4912;50.836;12.958;2023-02-19T09:17:50;97836.56;;;9.10;100.00
9746;BME280;4912;50.836;12.958;2023-02-19T09:20:20;97845.00;;;9.15;100.00
9746;BME280;4912;50.836;12.958;2023-02-19T09:22:55;97859.09;;;9.08;100.00
9746;BME280;4912;50.836;12.958;2023-02-19T09:25:29;97878.56;;;9.04;100.00
9746;BME280;4912;50.836;12.958;2023-02-19T09:27:59;97880.06;;;8.96;100.00
9746;BME280;4912;50.836;12.958;2023-02-19T09:30:30;97886.06;;;8.95;100.00
9746;BME280;4912;50.836;12.958;2023-02-19T09:33:00;97890.31;;;8.96;100.00
9746;BME280;4912;50.836;12.958;2023-02-19T09:35:31;97895.22;;;8.92;100.00
9746;BME280;4912;50.836;12.958;2023-02-19T09:38:01;97906.88;;;8.96;100.00
9746;BME280;4912;50.836;12.958;2023-02-19T09:40:35;97909.34;;;8.94;100.00
9746;BME280;4912;50.836;12.958;2023-02-19T09:43:06;97925.72;;;8.88;100.00
9746;BME280;4912;50.836;12.958;2023-02-19T09:45:39;97922.97;;;8.88;100.00
9746;BME280;4912;50.836;12.958;2023-02-19T09:48:09;97918.34;;;8.85;100.00
9746;BME280;4912;50.836;12.958;2023-02-19T09:50:41;97938.41;;;8.77;100.00
9746;BME280;4912;50.836;12.958;2023-02-19T09:53:17;97942.81;;;8.74;100.00
9746;BME280;4912;50.836;12.958;2023-02-19T09:55:53;97952.97;;;8.77;100.00
9746;BME280;4912;50.836;12.958;2023-02-19T09:58:27;97949.97;;;8.62;100.00
9746;BME280;4912;50.836;12.958;2023-02-19T10:01:02;97956.38;;;8.59;100.00
9746;BME280;4912;50.836;12.958;2023-02-19T10:03:37;97964.00;;;8.55;100.00
9746;BME280;4912;50.836;12.958;2023-02-19T10:06:15;97974.09;;;8.49;100.00
9746;BME280;4912;50.836;12.958;2023-02-19T10:08:51;97991.09;;;8.48;100.00
9746;BME280;4912;50.836;12.958;2023-02-19T10:11:26;97992.75;;;8.45;100.00
9746;BME280;4912;50.836;12.958;2023-02-19T10:14:03;98007.13;;;8.40;100.00
9746;BME280;4912;50.836;12.958;2023-02-19T10:16:39;98004.03;;;8.38;100.00
9746;BME280;4912;50.836;12.958;2023-02-19T10:19:12;98028.97;;;8.35;100.00
9746;BME280;4912;50.836;12.958;2023-02-19T10:21:43;98029.09;;;8.31;100.00
9746;BME280;4912;50.836;12.958;2023-02-19T10:24:19;98023.72;;;8.15;100.00
9746;BME280;4912;50.836;12.958;2023-02-19T10:26:55;98037.50;;;8.15;100.00
9746;BME280;4912;50.836;12.958;2023-02-19T10:29:26;98039.69;;;8.20;100.00
9746;BME280;4912;50.836;12.958;2023-02-19T10:32:20;98036.81;;;8.23;100.00
9746;BME280;4912;50.836;12.958;2023-02-19T10:35:08;98047.50;;;8.21;100.00
9746;BME280;4912;50.836;12.958;2023-02-19T10:37:44;98050.06;;;8.16;100.00
9746;BME280;4912;50.836;12.958;2023-02-19T10:40:18;98059.69;;;8.11;100.00
9746;BME280;4912;50.836;12.958;2023-02-19T10:42:53;98061.66;;;8.11;100.00
9746;BME280;4912;50.836;12.958;2023-02-19T10:45:31;98067.16;;;8.11;100.00
9746;BME280;4912;50.836;12.958;2023-02-19T10:48:05;98063.50;;;8.14;100.00
9746;BME280;4912;50.836;12.958;2023-02-19T10:50:36;98070.19;;;8.26;100.00
9746;BME280;4912;50.836;12.958;2023-02-19T10:53:20;98085.38;;;8.43;100.00
9746;BME280;4912;50.836;12.958;2023-02-19T10:56:06;98085.81;;;8.54;99.76
9746;BME280;4912;50.836;12.958;2023-02-19T10:58:41;98090.97;;;8.65;98.43
9746;BME280;4912;50.836;12.958;2023-02-19T11:01:18;98089.78;;;8.75;96.57
9746;BME280;4912;50.836;12.958;2023-02-19T11:03:50;98098.91;;;8.84;95.82
9746;BME280;4912;50.836;12.958;2023-02-19T11:06:25;98099.22;;;8.86;95.53
9746;BME280;4912;50.836;12.958;2023-02-19T11:08:58;98096.03;;;8.88;94.95
9746;BME280;4912;50.836;12.958;2023-02-19T11:11:31;98102.97;;;8.71;93.67
9746;BME280;4912;50.836;12.958;2023-02-19T11:14:17;98113.59;;;8.59;95.11
9746;BME280;4912;50.836;12.958;2023-02-19T11:16:52;98116.25;;;8.50;93.86
9746;BME280;4912;50.836;12.958;2023-02-19T11:19:28;98116.41;;;8.47;95.02
9746;BME280;4912;50.836;12.958;2023-02-19T11:22:01;98126.56;;;8.37;94.35
9746;BME280;4912;50.836;12.958;2023-02-19T11:24:34;98126.56;;;8.37;96.71
9746;BME280;4912;50.836;12.958;2023-02-19T11:27:16;98131.28;;;8.37;95.00
9746;BME280;4912;50.836;12.958;2023-02-19T11:29:51;98127.94;;;8.54;95.38
9746;BME280;4912;50.836;12.958;2023-02-19T11:32:26;98132.09;;;8.72;92.75
9746;BME280;4912;50.836;12.958;2023-02-19T11:35:14;98139.28;;;8.91;90.86
9746;BME280;4912;50.836;12.958;2023-02-19T11:37:56;98142.56;;;8.98;91.29
9746;BME280;4912;50.836;12.958;2023-02-19T11:40:39;98142.50;;;9.11;91.94
9746;BME280;4912;50.836;12.958;2023-02-19T11:43:28;98140.56;;;8.99;88.06
9746;BME280;4912;50.836;12.958;2023-02-19T11:46:14;98139.28;;;8.91;87.28
9746;BME280;4912;50.836;12.958;2023-02-19T11:48:56;98150.44;;;9.09;88.91
9746;BME280;4912;50.836;12.958;2023-02-19T11:51:54;98154.56;;;9.04;86.67
9746;BME280;4912;50.836;12.958;2023-02-19T11:54:45;98160.66;;;8.99;87.50
9746;BME280;4912;50.836;12.958;2023-02-19T11:57:31;98161.09;;;8.76;86.38
9746;BME280;4912;50.836;12.958;2023-02-19T12:00:27;98157.78;;;8.69;87.63
9746;BME280;4912;50.836;12.958;2023-02-19T12:03:33;98169.97;;;8.58;86.77
9746;BME280;4912;50.836;12.958;2023-02-19T12:06:21;98169.00;;;8.52;85.52
9746;BME280;4912;50.836;12.958;2023-02-19T12:09:11;98164.56;;;8.55;87.10
9746;BME280;4912;50.836;12.958;2023-02-19T12:12:00;98161.47;;;8.66;87.17
9746;BME280;4912;50.836;12.958;2023-02-19T12:14:57;98164.63;;;8.77;85.63
9746;BME280;4912;50.836;12.958;2023-02-19T12:18:00;98185.94;;;8.63;85.68
9746;BME280;4912;50.836;12.958;2023-02-19T12:20:58;98181.78;;;8.59;85.82
9746;BME280;4912;50.836;12.958;2023-02-19T12:23:49;98181.88;;;8.55;87.31
9746;BME280;4912;50.836;12.958;2023-02-19T12:26:37;98184.28;;;8.66;87.47
9746;BME280;4912;50.836;12.958;2023-02-19T12:29:36;98179.06;;;8.81;86.48
9746;BME280;4912;50.836;12.958;2023-02-19T12:32:37;98183.19;;;8.98;83.64
9746;BME280;4912;50.836;12.958;2023-02-19T12:35:33;98195.19;;;9.04;81.83
9746;BME280;4912;50.836;12.958;2023-02-19T12:38:23;98187.72;;;8.92;79.83
9746;BME280;4912;50.836;12.958;2023-02-19T12:41:23;98196.97;;;8.98;78.32
9746;BME280;4912;50.836;12.958;2023-02-19T12:44:01;98196.13;;;8.88;77.67
9746;BME280;4912;50.836;12.958;2023-02-19T12:46:37;98204.53;;;8.85;76.30
9746;BME280;4912;50.836;12.958;2023-02-19T12:49:11;98206.41;;;8.88;76.92
9746;BME280;4912;50.836;12.958;2023-02-19T12:51:47;98213.56;;;8.85;78.54
9746;BME280;4912;50.836;12.958;2023-02-19T12:54:26;98214.78;;;8.84;78.10
9746;BME280;4912;50.836;12.958;2023-02-19T12:57:01;98217.34;;;8.79;78.31
9746;BME280;4912;50.836;12.958;2023-02-19T12:59:36;98219.69;;;8.68;78.29
9746;BME280;4912;50.836;12.958;2023-02-19T13:02:13;98221.69;;;8.54;77.46
9746;BME280;4912;50.836;12.958;2023-02-19T13:04:50;98222.72;;;8.48;77.75
9746;BME280;4912;50.836;12.958;2023-02-19T13:07:29;98223.34;;;8.65;79.54
9746;BME280;4912;50.836;12.958;2023-02-19T13:10:25;98224.44;;;8.67;79.08
9746;BME280;4912;50.836;12.958;2023-02-19T13:13:03;98223.91;;;8.59;76.36
9746;BME280;4912;50.836;12.958;2023-02-19T13:15:38;98225.91;;;8.59;76.72
9746;BME280;4912;50.836;12.958;2023-02-19T13:18:15;98226.34;;;8.57;74.74
9746;BME280;4912;50.836;12.958;2023-02-19T13:20:48;98225.78;;;8.62;74.55
9746;BME280;4912;50.836;12.958;2023-02-19T13:23:25;98224.13;;;8.65;75.35
9746;BME280;4912;50.836;12.958;2023-02-19T13:26:24;98233.81;;;8.70;75.71
9746;BME280;4912;50.836;12.958;2023-02-19T13:29:21;98232.50;;;8.61;75.92
9746;BME280;4912;50.836;12.958;2023-02-19T13:32:16;98238.25;;;8.54;76.03
9746;BME280;4912;50.836;12.958;2023-02-19T13:35:25;98236.06;;;8.37;76.77
9746;BME280;4912;50.836;12.958;2023-02-19T13:38:02;98248.06;;;8.43;76.63
9746;BME280;4912;50.836;12.958;2023-02-19T13:40:35;98245.75;;;8.29;75.80
9746;BME280;4912;50.836;12.958;2023-02-19T13:43:23;98237.91;;;8.27;75.05
9746;BME280;4912;50.836;12.958;2023-02-19T13:45:56;98231.19;;;8.28;74.00
9746;BME280;4912;50.836;12.958;2023-02-19T13:48:29;98241.34;;;8.31;74.76
9746;BME280;4912;50.836;12.958;2023-02-19T13:54:24;98249.53;;;8.35;73.32
9746;BME280;4912;50.836;12.958;2023-02-19T13:57:26;98243.66;;;8.20;73.30
9746;BME280;4912;50.836;12.958;2023-02-19T14:00:01;98248.75;;;8.34;73.13
9746;BME280;4912;50.836;12.958;2023-02-19T14:02:32;98245.09;;;8.50;71.75
9746;BME280;4912;50.836;12.958;2023-02-19T14:05:05;98246.22;;;8.52;69.53